createdAt,value
2022-11-29T00:04:32.281Z,5.18
2022-11-29T00:09:35.141Z,5.10
2022-11-29T00:14:38.082Z,5.09
2022-11-29T00:19:42.287Z,5.09
2022-11-29T00:24:45.272Z,5.05
2022-11-29T00:29:48.176Z,4.97
2022-11-29T00:34:52.346Z,4.97
2022-11-29T00:39:55.085Z,4.98
2022-11-29T00:44:57.811Z,4.99
2022-11-29T00:50:01.901Z,4.94
2022-11-29T00:55:05.152Z,4.91
2022-11-29T01:00:09.203Z,4.94
2022-11-29T01:05:13.381Z,4.88
2022-11-29T01:10:16.258Z,4.87
2022-11-29T01:15:19.497Z,4.95
2022-11-29T01:20:23.721Z,5.00
2022-11-29T01:25:26.756Z,4.75
2022-11-29T01:30:29.609Z,4.82
2022-11-29T01:35:33.778Z,4.81
2022-11-29T01:40:36.596Z,4.84
2022-11-29T01:45:40.313Z,4.81
2022-11-29T01:50:44.829Z,4.81
2022-11-29T01:55:53.294Z,4.63
2022-11-29T02:00:57.357Z,4.55
2022-11-29T02:06:02.597Z,4.54
2022-11-29T02:11:34.359Z,4.53
2022-11-29T02:16:44.831Z,4.32
2022-11-29T02:21:54.143Z,4.43
2022-11-29T02:27:12.490Z,4.51
2022-11-29T02:33:05.942Z,4.45
2022-11-29T02:38:26.714Z,4.52
2022-11-29T02:43:59.227Z,4.63
2022-11-29T02:49:08.852Z,4.69
2022-11-29T02:54:21.598Z,4.75
2022-11-29T02:59:40.392Z,4.70
2022-11-29T03:04:47.894Z,4.67
2022-11-29T03:09:59.455Z,4.67
2022-11-29T03:15:13.975Z,4.55
2022-11-29T03:20:30.132Z,4.63
2022-11-29T03:25:39.890Z,4.63
2022-11-29T03:31:14.133Z,4.69
2022-11-29T03:36:24.865Z,4.74
2022-11-29T03:41:37.696Z,4.68
2022-11-29T03:46:49.652Z,4.61
2022-11-29T03:52:01.698Z,4.63
2022-11-29T03:57:07.407Z,4.67
2022-11-29T04:02:30.730Z,4.68
2022-11-29T04:08:02.186Z,4.70
2022-11-29T04:13:36.954Z,4.72
2022-11-29T04:19:23.543Z,4.74
2022-11-29T04:25:05.072Z,4.71
2022-11-29T04:30:19.233Z,4.69
2022-11-29T04:35:39.940Z,4.68
2022-11-29T04:41:02.376Z,4.71
2022-11-29T04:46:52.751Z,4.76
2022-11-29T04:52:18.129Z,4.82
2022-11-29T04:57:32.022Z,4.79
2022-11-29T05:02:42.019Z,4.85
2022-11-29T05:07:54.041Z,4.88
2022-11-29T05:13:05.317Z,4.88
2022-11-29T05:18:17.846Z,4.76
2022-11-29T05:23:41.298Z,4.75
2022-11-29T05:28:56.118Z,4.72
2022-11-29T05:34:34.495Z,4.70
2022-11-29T05:39:50.629Z,4.74
2022-11-29T05:45:00.592Z,4.61
2022-11-29T05:50:12.435Z,4.51
2022-11-29T05:55:37.595Z,4.55
2022-11-29T06:00:49.819Z,4.50
2022-11-29T06:05:58.345Z,4.43
2022-11-29T06:11:06.977Z,4.45
2022-11-29T06:16:33.197Z,4.52
2022-11-29T06:21:40.749Z,4.49
2022-11-29T06:27:05.443Z,4.57
2022-11-29T06:32:21.462Z,4.65
2022-11-29T06:37:29.103Z,4.65
2022-11-29T06:42:33.474Z,4.60
2022-11-29T06:47:46.843Z,4.59
2022-11-29T06:52:58.576Z,4.43
2022-11-29T06:58:12.379Z,4.52
2022-11-29T07:03:41.911Z,4.40
2022-11-29T07:08:45.765Z,4.34
2022-11-29T07:13:50.895Z,4.47
2022-11-29T07:19:04.348Z,4.52
2022-11-29T07:24:17.668Z,4.39
2022-11-29T07:29:30.124Z,4.52
2022-11-29T07:34:42.723Z,4.47
2022-11-29T07:39:52.761Z,4.48
2022-11-29T07:45:05.442Z,4.59
2022-11-29T07:50:09.611Z,4.64
2022-11-29T07:55:18.431Z,4.68
2022-11-29T08:00:23.763Z,4.67
2022-11-29T08:05:27.104Z,4.55
2022-11-29T08:10:53.833Z,4.64
2022-11-29T08:21:29.159Z,4.62
2022-11-29T08:26:32.186Z,4.82
2022-11-29T08:31:35.410Z,4.87
2022-11-29T08:36:39.583Z,4.91
2022-11-29T08:41:42.353Z,4.94
2022-11-29T08:47:03.033Z,4.88
2022-11-29T08:52:27.251Z,4.95
2022-11-29T08:57:45.210Z,5.00
2022-11-29T09:02:48.156Z,5.01
2022-11-29T09:07:52.521Z,4.96
2022-11-29T09:12:56.243Z,5.06
2022-11-29T09:17:59.261Z,5.06
2022-11-29T09:23:03.595Z,4.97
2022-11-29T09:28:07.345Z,5.00
2022-11-29T09:33:10.258Z,5.11
2022-11-29T09:38:15.333Z,5.23
2022-11-29T09:43:28.845Z,5.25
2022-11-29T09:48:52.559Z,5.04
2022-11-29T09:54:09.952Z,5.12
2022-11-29T09:59:17.993Z,5.23
2022-11-29T10:04:25.967Z,5.09
2022-11-29T10:09:34.655Z,5.13
2022-11-29T10:14:43.719Z,5.32
2022-11-29T10:19:51.739Z,5.39
2022-11-29T10:25:02.003Z,5.31
2022-11-29T10:30:06.429Z,5.23
2022-11-29T10:35:14.579Z,5.02
2022-11-29T10:40:24.004Z,5.08
2022-11-29T10:45:34.947Z,5.13
2022-11-29T10:50:38.512Z,5.24
2022-11-29T10:55:53.162Z,5.19
2022-11-29T11:00:59.366Z,5.30
2022-11-29T11:06:07.374Z,5.36
2022-11-29T11:11:12.642Z,5.52
2022-11-29T11:16:18.909Z,5.58
2022-11-29T11:21:25.507Z,5.63
2022-11-29T11:26:43.018Z,5.72
2022-11-29T11:31:53.285Z,5.75
2022-11-29T11:37:19.071Z,5.76
2022-11-29T11:42:39.263Z,5.52
2022-11-29T11:47:45.590Z,5.55
2022-11-29T11:52:53.327Z,5.56
2022-11-29T11:58:09.929Z,5.52
2022-11-29T12:03:38.080Z,5.54
2022-11-29T12:08:41.063Z,5.60
2022-11-29T12:13:50.152Z,5.74
2022-11-29T12:18:58.322Z,5.80
2022-11-29T12:24:07.076Z,5.71
2022-11-29T12:29:15.380Z,5.62
2022-11-29T12:34:32.565Z,5.66
2022-11-29T12:39:50.636Z,5.61
2022-11-29T12:45:02.316Z,5.72
2022-11-29T12:50:20.432Z,5.75
2022-11-29T12:55:27.228Z,5.75
2022-11-29T13:00:36.832Z,5.77
2022-11-29T13:05:56.957Z,5.79
2022-11-29T13:11:08.176Z,5.83
2022-11-29T13:16:31.848Z,5.80
2022-11-29T13:21:41.245Z,5.75
2022-11-29T13:26:45.737Z,5.72
2022-11-29T13:31:50.732Z,5.85
2022-11-29T13:37:05.882Z,5.75
2022-11-29T13:42:16.361Z,5.62
2022-11-29T13:47:21.342Z,5.62
2022-11-29T13:52:39.072Z,5.62
2022-11-29T13:58:15.043Z,5.63
2022-11-29T14:03:31.411Z,5.49
2022-11-29T14:09:10.334Z,5.57
2022-11-29T14:14:04.620Z,5.43
2022-11-29T14:19:22.000Z,5.54
2022-11-29T14:24:40.881Z,5.52
2022-11-29T14:29:54.951Z,5.53
2022-11-29T14:35:09.232Z,5.55
2022-11-29T14:40:29.710Z,5.42
2022-11-29T14:45:35.064Z,5.41
2022-11-29T14:50:43.804Z,5.38
2022-11-29T14:55:48.290Z,5.35
2022-11-29T15:01:10.657Z,5.32
2022-11-29T15:06:36.942Z,5.35
2022-11-29T15:11:51.458Z,5.35
2022-11-29T15:17:05.782Z,5.26
2022-11-29T15:22:16.766Z,5.36
2022-11-29T15:27:20.093Z,5.33
2022-11-29T15:32:26.676Z,5.34
2022-11-29T15:37:44.917Z,5.36
2022-11-29T15:42:52.698Z,5.33
2022-11-29T15:47:56.187Z,5.29
2022-11-29T15:53:04.383Z,5.40
2022-11-29T15:58:09.008Z,5.29
2022-11-29T16:03:21.208Z,5.29
2022-11-29T16:08:27.508Z,5.34
2022-11-29T16:13:36.920Z,5.41
2022-11-29T16:18:42.716Z,5.43
2022-11-29T16:23:46.957Z,5.35
2022-11-29T16:28:54.517Z,5.39
2022-11-29T16:33:57.779Z,5.48
2022-11-29T16:39:06.561Z,5.36
2022-11-29T16:44:48.253Z,5.37
2022-11-29T16:50:13.254Z,5.41
2022-11-29T16:55:18.816Z,5.49
2022-11-29T17:00:30.974Z,5.48
2022-11-29T17:05:33.866Z,5.48
2022-11-29T17:10:38.036Z,5.45
2022-11-29T17:15:40.908Z,5.36
2022-11-29T17:20:46.697Z,5.38
2022-11-29T17:25:58.353Z,5.45
2022-11-29T17:31:09.352Z,5.41
2022-11-29T17:36:15.397Z,5.48
2022-11-29T17:41:22.536Z,5.38
2022-11-29T17:46:27.166Z,5.34
2022-11-29T17:56:58.686Z,5.42
2022-11-29T18:02:03.856Z,5.34
2022-11-29T18:07:06.749Z,5.39
2022-11-29T18:12:10.887Z,5.36
2022-11-29T18:17:13.813Z,5.42
2022-11-29T18:22:18.818Z,5.45
2022-11-29T18:27:23.198Z,5.49
2022-11-29T18:32:27.444Z,5.30
2022-11-29T18:38:05.007Z,5.36
2022-11-29T18:42:54.923Z,5.28
2022-11-29T18:47:57.760Z,5.31
2022-11-29T18:53:00.713Z,5.28
2022-11-29T18:58:06.585Z,5.25
2022-11-29T19:03:11.556Z,5.30
2022-11-29T19:08:17.310Z,5.30
2022-11-29T19:13:21.440Z,5.31
2022-11-29T19:18:24.394Z,5.43
2022-11-29T19:23:27.311Z,5.49
2022-11-29T19:28:32.404Z,5.45
2022-11-29T19:33:36.704Z,5.45
2022-11-29T19:38:40.947Z,5.48
2022-11-29T19:43:51.464Z,5.41
2022-11-29T19:48:55.363Z,5.42
2022-11-29T19:54:03.129Z,5.38
2022-11-29T19:59:08.633Z,5.37
2022-11-29T20:04:13.545Z,5.36
2022-11-29T20:09:19.320Z,5.34
2022-11-29T20:14:28.742Z,5.40
2022-11-29T20:19:32.021Z,5.41
2022-11-29T20:31:21.339Z,5.29
2022-11-29T20:36:35.668Z,5.32
2022-11-29T20:41:46.617Z,5.27
2022-11-29T20:46:54.955Z,5.30
2022-11-29T20:52:08.505Z,5.20
2022-11-29T20:57:11.620Z,5.31
2022-11-29T21:02:17.091Z,5.23
2022-11-29T21:07:22.295Z,5.28
2022-11-29T21:12:25.996Z,5.28
2022-11-29T21:17:34.058Z,5.14
2022-11-29T21:23:35.089Z,5.12
2022-11-29T21:28:48.582Z,5.04
2022-11-29T21:34:31.583Z,5.04
2022-11-29T21:45:54.573Z,5.14
2022-11-29T21:51:30.209Z,5.08
2022-11-29T21:56:51.421Z,5.18
2022-11-29T22:01:57.307Z,5.20
2022-11-29T22:07:01.735Z,5.08
2022-11-29T22:12:25.790Z,5.15
2022-11-29T22:17:29.939Z,5.10
2022-11-29T22:22:34.140Z,5.20
2022-11-29T22:27:37.513Z,5.09
2022-11-29T22:32:42.429Z,5.00
2022-11-29T22:37:46.530Z,5.00
2022-11-29T22:42:51.674Z,5.03
2022-11-29T22:47:59.396Z,5.01
2022-11-29T22:53:03.574Z,4.89
2022-11-29T22:58:06.363Z,4.92
2022-11-29T23:03:09.220Z,4.86
2022-11-29T23:08:14.093Z,5.04
2022-11-29T23:13:16.820Z,5.09
2022-11-29T23:18:22.642Z,5.15
2022-11-29T23:23:27.053Z,5.17
2022-11-29T23:28:30.199Z,5.21
2022-11-29T23:33:33.065Z,5.27
2022-11-29T23:38:39.011Z,5.20
2022-11-29T23:43:42.720Z,5.12
2022-11-29T23:48:45.976Z,5.18
2022-11-29T23:53:53.512Z,5.11
2022-11-29T23:58:56.346Z,5.20
